FVHA/HRE METAR and TAF weather

Enter ICAO airport designator
Station Type Date Time Source
FVHA METAR 2018/06/25 00:00 UTC NOAA

FVHA 250000Z 08003KT CAVOK 10/08 Q1026


Station Type Date Time Source
FVHA Decoded METAR 2018/06/25 00:00 UTC NOAA

Harare Kutsaga , Zimbabwe (FVHA) 17-55S 031-08E 1480M
Jun 24, 2018 - 08:00 PM EDT / 2018.06.25 0000 UTC
Wind: from the E (080 degrees) at 3 MPH (3 KT):0
Visibility: greater than 7 mile(s):0
Temperature: 50 F (10 C)
Dew Point: 46 F (8 C)
Relative Humidity: 87%
Pressure (altimeter): 30.30 in. Hg (1026 hPa)
ob: FVHA 250000Z 08003KT CAVOK 10/08 Q1026
cycle: 0

Station Type Date Time Source
FVHA TAF 2018/06/24 18:18 UTC NOAA

TAF FVHA 241600Z 2418/2524 16008KT CAVOK


Example: see airport list